Terminal Aerodrome Forecast
Issued by NWS

Home | Current Version | Previous Version | Text Only | Print | Product List | Glossary On
Versions: 1 2 3 4 5 6 7 8 9 10 11 12
719
FTUS42 TJSJ 241738
TAFJPS
TAF
TJPS 241738Z 2418/2518 13010KT P6SM VCSH SCT025 BKN050
     FM242130 VRB12KT P6SM VCTS SCT020CB BKN040 OVC060
     FM251330 13010KT P6SM VCSH SCT025 SCT050
      AMD NOT SKED TIL 250300=

USA.gov is the U.S. government's official web portal to all federal, state and local government web resources and services.